Time;durP1;ratioP1;P1;durP2;ratioP2;P2;SDS_P1;SDS_P2;PMS_P1;PMS_P2;Temp;Humidity;BMP_temperature;BMP_pressure;BME280_temperature;BME280_humidity;BME280_pressure;Samples;Min_cycle;Max_cycle;Signal;HPM_P1;HPM_P2
2022/06/27 00:00:17;;;;;;;50.08;12.70;;;;;;;23.08;53.20;100162.31;4966634;28;20057;-65
2022/06/27 00:02:44;;;;;;;61.22;14.25;;;;;;;23.01;53.41;100169.66;4981661;28;20050;-65
2022/06/27 00:05:11;;;;;;;57.03;12.38;;;;;;;23.05;53.22;100171.41;4982888;28;20050;-67
2022/06/27 00:07:39;;;;;;;37.67;11.82;;;;;;;23.06;52.91;100166.66;4967022;28;20046;-65
2022/06/27 00:10:07;;;;;;;52.78;14.00;;;;;;;23.00;53.98;100165.25;4964281;28;20058;-67
2022/06/27 00:12:33;;;;;;;47.80;14.68;;;;;;;22.92;54.07;100167.00;4963792;28;20051;-66
2022/06/27 00:14:59;;;;;;;39.33;11.83;;;;;;;22.88;54.09;100171.66;4962617;28;20066;-67
2022/06/27 00:17:27;;;;;;;37.13;11.93;;;;;;;22.89;53.57;100170.50;4963431;28;20039;-64
2022/06/27 00:19:53;;;;;;;48.92;14.95;;;;;;;22.87;54.53;100173.66;4963224;28;20061;-67
2022/06/27 00:22:19;;;;;;;51.42;15.68;;;;;;;22.82;54.94;100179.44;4963873;28;20422;-65
2022/06/27 00:24:47;;;;;;;66.07;16.85;;;;;;;22.74;55.56;100177.59;4964426;28;20057;-65
2022/06/27 00:27:13;;;;;;;62.70;15.05;;;;;;;22.69;55.36;100170.28;4967010;28;20058;-66
2022/06/27 00:29:40;;;;;;;45.20;13.73;;;;;;;22.62;55.31;100173.66;4979738;28;20105;-65
2022/06/27 00:32:07;;;;;;;49.08;13.80;;;;;;;22.55;55.78;100178.97;4962966;28;20094;-65
2022/06/27 00:34:33;;;;;;;44.13;12.43;;;;;;;22.56;55.50;100179.78;4978902;28;20142;-65
2022/06/27 00:37:00;;;;;;;46.72;12.95;;;;;;;22.57;55.73;100181.41;4963088;28;20051;-65
2022/06/27 00:39:26;;;;;;;59.97;13.18;;;;;;;22.57;55.11;100176.66;4974413;28;20060;-66
2022/06/27 00:41:54;;;;;;;45.40;12.30;;;;;;;22.60;55.25;100183.50;4981848;28;20442;-66
2022/06/27 00:44:31;;;;;;;40.25;13.75;;;;;;;22.58;55.16;100183.88;4982385;28;20313;-65
2022/06/27 00:46:57;;;;;;;54.20;14.07;;;;;;;22.63;54.94;100186.41;4984312;28;20053;-66
2022/06/27 00:49:23;;;;;;;48.10;12.98;;;;;;;22.58;55.04;100183.88;4964472;28;20141;-66
2022/06/27 00:51:49;;;;;;;42.90;12.90;;;;;;;22.58;54.72;100181.09;4964109;28;20142;-67
2022/06/27 00:54:15;;;;;;;36.30;12.48;;;;;;;22.54;54.85;100180.13;4954783;28;20074;-66
2022/06/27 00:56:42;;;;;;;37.53;12.65;;;;;;;22.55;54.66;100178.16;4958906;28;20058;-66
2022/06/27 00:59:09;;;;;;;51.22;14.65;;;;;;;22.52;55.59;100176.88;4964397;28;20053;-67
2022/06/27 01:01:35;;;;;;;38.20;12.90;;;;;;;22.51;55.30;100186.41;4946340;28;20498;-65
2022/06/27 01:04:01;;;;;;;53.22;14.55;;;;;;;22.51;55.58;100181.66;4966079;28;20073;-67
2022/06/27 01:06:28;;;;;;;41.83;12.75;;;;;;;22.54;55.90;100179.34;4965322;28;20495;-66
2022/06/27 01:08:54;;;;;;;44.05;13.05;;;;;;;22.56;55.90;100177.00;4969205;28;20050;-65
2022/06/27 01:11:20;;;;;;;33.17;12.30;;;;;;;22.51;55.08;100164.13;4963865;28;20051;-64
2022/06/27 01:13:47;;;;;;;51.45;14.23;;;;;;;22.66;55.24;100182.13;4967970;28;20404;-66
2022/06/27 01:16:14;;;;;;;39.17;12.97;;;;;;;22.71;55.16;100178.28;4966882;28;20064;-65
2022/06/27 01:18:42;;;;;;;46.55;14.18;;;;;;;22.71;55.08;100172.69;4964232;28;20382;-66
2022/06/27 01:21:14;;;;;;;49.28;13.73;;;;;;;22.74;54.77;100178.41;4981105;28;20050;-65
2022/06/27 01:23:42;;;;;;;50.65;13.68;;;;;;;22.79;54.61;100180.16;4984538;28;20387;-65
2022/06/27 01:26:09;;;;;;;51.47;13.82;;;;;;;22.81;54.87;100180.59;4985267;28;20101;-65
2022/06/27 01:28:36;;;;;;;52.63;14.50;;;;;;;22.81;55.19;100183.38;4985512;28;20053;-63
2022/06/27 01:31:02;;;;;;;47.33;13.87;;;;;;;22.78;55.38;100181.31;4986085;28;20054;-65
2022/06/27 01:33:28;;;;;;;44.45;13.65;;;;;;;22.79;55.51;100182.94;4970735;28;20321;-65
2022/06/27 01:36:41;;;;;;;35.42;12.57;;;;;;;22.78;55.18;100182.09;4965189;28;20070;-64
2022/06/27 01:38:44;;;;;;;40.75;13.75;;;;;;;22.84;54.78;100182.69;4962383;28;20051;-64
2022/06/27 01:41:11;;;;;;;30.17;12.20;;;;;;;22.91;54.67;100177.34;4952357;28;20034;-66
2022/06/27 01:43:37;;;;;;;36.10;12.10;;;;;;;22.98;54.47;100187.91;4984583;28;20521;-65
2022/06/27 01:46:04;;;;;;;37.88;12.75;;;;;;;23.02;54.10;100188.00;4985640;28;20046;-65
2022/06/27 01:48:30;;;;;;;31.17;12.43;;;;;;;23.06;54.25;100186.16;4985232;28;20069;-64
2022/06/27 01:51:00;;;;;;;39.47;11.15;;;;;;;23.09;54.41;100183.47;4984603;28;20317;-64
2022/06/27 01:53:28;;;;;;;32.83;12.13;;;;;;;23.02;54.50;100166.53;4984589;28;20050;-64
2022/06/27 01:55:56;;;;;;;34.20;11.80;;;;;;;23.14;54.37;100176.06;4985763;28;20053;-66
2022/06/27 01:58:22;;;;;;;37.65;11.43;;;;;;;23.15;54.49;100174.88;4984925;28;20070;-65
2022/06/27 02:00:49;;;;;;;35.70;12.18;;;;;;;23.16;54.39;100184.88;5000943;28;20525;-65
2022/06/27 02:03:16;;;;;;;27.30;11.70;;;;;;;23.17;54.57;100181.72;4975073;28;20055;-65
2022/06/27 02:05:43;;;;;;;23.85;12.05;;;;;;;23.18;54.63;100175.00;4949545;28;20294;-66
2022/06/27 02:08:10;;;;;;;40.88;12.20;;;;;;;23.21;54.73;100181.84;4949727;28;20451;-64
2022/06/27 02:10:36;;;;;;;31.30;11.75;;;;;;;23.22;54.64;100186.25;4965547;28;20063;-66
2022/06/27 02:13:03;;;;;;;34.25;12.30;;;;;;;23.24;54.97;100181.13;4967439;28;20057;-65
2022/06/27 02:15:30;;;;;;;39.10;12.55;;;;;;;23.26;54.83;100183.56;4982395;28;20081;-65
2022/06/27 02:17:56;;;;;;;40.08;12.63;;;;;;;23.31;55.48;100186.97;4949101;28;20042;-65
2022/06/27 02:20:22;;;;;;;39.65;12.90;;;;;;;23.32;55.62;100183.00;4962632;28;20061;-65
2022/06/27 02:22:49;;;;;;;54.13;11.23;;;;;;;23.34;55.48;100180.66;4985866;28;20057;-65
2022/06/27 02:25:15;;;;;;;;;;;;;;;23.40;55.48;100191.56;4985561;28;20082;-65
2022/06/27 02:27:43;;;;;;;48.90;14.20;;;;;;;23.45;55.27;100182.97;4967012;28;19957;-64
2022/06/27 02:30:12;;;;;;;37.28;12.80;;;;;;;23.48;55.58;100180.28;4964007;28;20046;-67
2022/06/27 02:32:39;;;;;;;37.88;12.38;;;;;;;23.51;55.41;100187.97;4964522;28;20085;-66
2022/06/27 02:35:07;;;;;;;37.83;13.13;;;;;;;23.54;56.05;100174.47;4975991;28;20054;-65
2022/06/27 02:37:34;;;;;;;39.70;11.63;;;;;;;23.56;55.79;100166.53;4983445;28;20050;-66
2022/06/27 02:40:02;;;;;;;29.88;13.13;;;;;;;23.57;55.67;100174.56;4984183;28;20514;-66
2022/06/27 02:42:30;;;;;;;44.67;13.63;;;;;;;23.60;55.61;100173.84;4982718;28;20050;-66
2022/06/27 02:44:56;;;;;;;41.47;12.77;;;;;;;23.61;55.59;100174.66;4961996;28;20056;-67
2022/06/27 02:47:25;;;;;;;52.67;14.37;;;;;;;23.69;55.66;100179.28;4964867;28;20058;-66
2022/06/27 02:49:51;;;;;;;29.42;12.88;;;;;;;23.73;55.63;100173.81;4980617;28;20401;-66
2022/06/27 02:52:25;;;;;;;34.22;12.63;;;;;;;23.73;55.51;100174.59;4947399;28;20278;-66
2022/06/27 02:55:03;;;;;;;41.10;13.57;;;;;;;23.80;55.25;100165.63;4949685;28;20043;-66
2022/06/27 02:57:39;;;;;;;36.47;12.77;;;;;;;23.83;55.30;100167.69;4949000;28;20415;-66
2022/06/27 03:00:07;;;;;;;34.67;14.13;;;;;;;23.91;55.20;100177.09;4932924;28;20078;-67
2022/06/27 03:02:38;;;;;;;36.42;12.75;;;;;;;23.93;54.90;100169.97;4965244;28;20062;-69
2022/06/27 03:05:10;;;;;;;47.42;13.90;;;;;;;23.98;54.69;100174.50;4948290;28;20039;-65
2022/06/27 03:07:37;;;;;;;42.23;12.70;;;;;;;24.04;54.77;100172.25;4948253;28;20057;-65
2022/06/27 03:10:04;;;;;;;47.95;13.90;;;;;;;24.07;54.54;100172.38;4980687;28;20435;-66
2022/06/27 03:12:32;;;;;;;41.67;13.73;;;;;;;24.11;54.34;100169.69;4962403;28;20062;-65
2022/06/27 03:14:58;;;;;;;40.90;14.23;;;;;;;24.15;54.17;100169.78;4964685;28;20046;-67
2022/06/27 03:17:25;;;;;;;44.43;12.77;;;;;;;24.20;54.06;100173.13;4963987;28;20166;-65
2022/06/27 03:20:21;;;;;;;30.77;13.90;;;;;;;24.27;53.80;100166.09;4966842;28;20317;-67
2022/06/27 03:23:10;;;;;;;43.65;13.38;;;;;;;24.31;54.06;100167.81;4962856;28;20050;-64
2022/06/27 03:25:41;;;;;;;31.33;13.57;;;;;;;24.40;53.83;100162.03;4946792;28;20419;-66
2022/06/27 03:28:09;;;;;;;41.95;14.15;;;;;;;24.48;53.63;100166.63;4989775;28;20548;-66
2022/06/27 03:30:35;;;;;;;34.92;14.38;;;;;;;24.52;53.44;100161.13;4982629;28;20074;-66
2022/06/27 03:33:01;;;;;;;51.50;13.60;;;;;;;24.59;53.40;100166.91;4984870;28;20286;-65
2022/06/27 03:35:33;;;;;;;34.08;13.52;;;;;;;24.37;53.47;100123.66;4984117;28;20525;-66
2022/06/27 03:38:01;;;;;;;46.88;14.10;;;;;;;24.67;53.19;100162.31;4996965;28;20047;-65
2022/06/27 03:40:27;;;;;;;;;;;;;;;24.74;52.95;100168.06;4983213;28;20413;-66
2022/06/27 03:42:54;;;;;;;50.08;14.82;;;;;;;24.81;52.84;100167.44;4982804;28;20372;-65
2022/06/27 03:45:20;;;;;;;51.13;14.27;;;;;;;24.85;52.81;100159.16;4985035;28;20090;-66
2022/06/27 03:47:49;;;;;;;69.15;15.02;;;;;;;24.86;52.69;100152.38;4982739;28;20061;-66
2022/06/27 03:50:35;;;;;;;43.00;13.63;;;;;;;24.87;52.48;100149.19;4981648;28;20054;-67
2022/06/27 03:53:03;;;;;;;44.40;14.57;;;;;;;24.96;52.58;100153.81;4983647;28;20058;-65
2022/06/27 03:55:34;;;;;;;43.88;14.25;;;;;;;25.02;52.24;100149.53;4981694;28;20057;-65
2022/06/27 03:58:02;;;;;;;42.85;13.85;;;;;;;25.09;52.28;100155.31;4981842;28;20085;-65
2022/06/27 04:00:32;;;;;;;31.23;13.65;;;;;;;25.15;52.31;100153.81;4980628;28;20093;-65
2022/06/27 04:03:00;;;;;;;31.40;13.50;;;;;;;25.19;52.45;100165.09;4982465;28;20145;-66
2022/06/27 04:05:32;;;;;;;35.08;13.07;;;;;;;25.20;51.80;100156.31;4985914;28;20477;-67
2022/06/27 04:08:01;;;;;;;41.50;14.15;;;;;;;25.25;52.05;100160.03;4997517;28;20050;-66
2022/06/27 04:10:29;;;;;;;70.95;15.82;;;;;;;25.29;51.92;100156.13;4963406;28;20034;-66
2022/06/27 04:12:56;;;;;;;73.28;15.25;;;;;;;25.32;51.33;100155.41;4982703;28;20054;-66
2022/06/27 04:15:38;;;;;;;60.55;14.20;;;;;;;25.37;51.73;100159.91;4985217;28;20069;-67
2022/06/27 04:18:22;;;;;;;43.03;21.35;;;;;;;25.46;51.23;100154.09;4982155;28;20050;-65
2022/06/27 04:21:00;;;;;;;32.97;13.57;;;;;;;25.53;50.69;100153.44;4996030;28;20502;-65
2022/06/27 04:23:45;;;;;;;38.05;14.35;;;;;;;25.61;50.92;100149.59;4980435;28;20632;-64
2022/06/27 04:26:11;;;;;;;42.55;13.98;;;;;;;25.67;50.71;100155.72;4981436;28;20049;-65
2022/06/27 04:28:37;;;;;;;43.92;14.00;;;;;;;25.73;50.31;100155.06;4980703;28;20456;-68
2022/06/27 04:31:03;;;;;;;40.57;14.20;;;;;;;25.77;50.44;100152.31;4979674;28;20070;-68
2022/06/27 04:33:29;;;;;;;41.15;14.35;;;;;;;25.81;50.34;100156.00;4980709;28;20427;-67
2022/06/27 04:35:55;;;;;;;43.47;14.60;;;;;;;25.87;50.41;100145.31;4981878;28;20043;-67
2022/06/27 04:38:21;;;;;;;52.60;13.98;;;;;;;25.94;50.17;100151.03;4986914;28;20631;-67
2022/06/27 04:40:58;;;;;;;42.72;14.68;;;;;;;26.00;50.09;100154.34;4986174;28;20085;-68
2022/06/27 04:43:27;;;;;;;80.38;15.32;;;;;;;26.04;49.90;100150.44;4985324;28;20065;-67
2022/06/27 04:45:54;;;;;;;48.05;14.48;;;;;;;26.11;49.95;100141.34;4986704;28;20108;-66
2022/06/27 04:48:56;;;;;;;37.38;14.50;;;;;;;26.18;49.68;100147.09;4987219;28;20112;-66
2022/06/27 04:51:22;;;;;;;30.35;14.48;;;;;;;26.26;49.66;100144.44;4986365;28;20058;-66
2022/06/27 04:53:49;;;;;;;28.75;14.00;;;;;;;26.30;49.42;100143.31;4984656;28;20055;-65
2022/06/27 04:56:16;;;;;;;33.17;13.80;;;;;;;26.31;49.49;100146.91;5001396;28;20046;-66
2022/06/27 04:58:42;;;;;;;31.55;14.32;;;;;;;26.35;49.28;100141.38;4985877;28;20057;-67
2022/06/27 05:01:10;;;;;;;42.28;15.13;;;;;;;26.36;49.28;100143.78;4979508;28;20086;-66
2022/06/27 05:03:36;;;;;;;33.08;13.25;;;;;;;26.39;49.10;100134.66;4980563;28;20047;-66
2022/06/27 05:06:09;;;;;;;33.67;14.50;;;;;;;26.38;48.83;100129.41;4975743;28;20046;-65
2022/06/27 05:08:37;;;;;;;32.03;14.23;;;;;;;26.42;49.00;100130.25;4984216;28;20581;-66
2022/06/27 05:11:04;;;;;;;34.90;14.13;;;;;;;26.48;48.83;100129.56;4987391;28;20054;-66
2022/06/27 05:13:32;;;;;;;35.30;14.35;;;;;;;26.56;48.66;100126.91;4966560;28;20628;-66
2022/06/27 05:16:03;;;;;;;39.30;14.05;;;;;;;26.61;48.62;100126.56;4964586;28;20065;-65
2022/06/27 05:18:29;;;;;;;40.80;13.82;;;;;;;26.69;48.57;100127.50;4982550;28;20105;-66
2022/06/27 05:20:56;;;;;;;32.80;14.13;;;;;;;26.74;48.17;100122.38;4986406;28;20141;-66
2022/06/27 05:23:22;;;;;;;45.78;14.93;;;;;;;26.78;48.15;100113.19;4985589;28;20050;-66
2022/06/27 05:25:48;;;;;;;49.23;15.57;;;;;;;26.88;48.07;100124.59;4984808;28;20104;-65
2022/06/27 05:28:15;;;;;;;47.67;14.23;;;;;;;26.90;48.02;100113.78;4968934;28;20089;-65
2022/06/27 05:30:42;;;;;;;33.40;14.52;;;;;;;26.98;47.89;100117.50;4971066;28;20108;-65
2022/06/27 05:33:08;;;;;;;45.58;15.13;;;;;;;27.01;47.92;100113.97;4985252;28;20572;-66
2022/06/27 05:35:35;;;;;;;41.90;14.45;;;;;;;27.08;47.69;100113.22;5000186;28;20120;-65
2022/06/27 05:38:01;;;;;;;40.78;14.40;;;;;;;27.17;47.09;100122.19;5001988;28;20054;-65
2022/06/27 05:40:27;;;;;;;27.50;13.70;;;;;;;27.20;46.80;100109.41;4948240;28;20097;-65
2022/06/27 05:42:54;;;;;;;38.03;14.70;;;;;;;27.30;47.08;100111.50;4967646;28;20570;-66
2022/06/27 05:45:21;;;;;;;58.63;15.32;;;;;;;27.38;46.97;100120.03;4949897;28;20521;-67
2022/06/27 05:48:14;;;;;;;50.80;14.13;;;;;;;27.51;46.52;100109.34;4966753;28;20495;-65
2022/06/27 05:50:59;;;;;;;52.35;14.80;;;;;;;27.66;46.28;100113.16;4952111;28;20046;-66
2022/06/27 05:53:25;;;;;;;45.63;15.05;;;;;;;27.68;45.67;100091.91;4960769;28;20486;-67
2022/06/27 05:55:52;;;;;;;32.72;14.15;;;;;;;27.82;45.28;100115.72;4963055;28;20072;-66
2022/06/27 05:58:19;;;;;;;45.00;16.27;;;;;;;27.88;45.53;100105.75;4964396;28;20117;-67
2022/06/27 06:00:45;;;;;;;29.33;14.05;;;;;;;27.94;45.24;100109.81;4992569;28;20047;-66
2022/06/27 06:03:11;;;;;;;28.77;13.32;;;;;;;27.99;44.73;100098.22;4982452;28;20133;-66
2022/06/27 06:05:41;;;;;;;35.65;14.32;;;;;;;28.03;44.58;100101.06;4982031;28;20054;-67
2022/06/27 06:08:08;;;;;;;43.83;14.48;;;;;;;28.10;45.06;100106.78;4983211;28;20058;-67
2022/06/27 06:10:35;;;;;;;44.25;13.80;;;;;;;28.21;44.57;100098.47;4965926;28;20541;-68
2022/06/27 06:13:03;;;;;;;35.17;13.73;;;;;;;28.28;44.39;100100.53;4981208;28;20082;-65
2022/06/27 06:15:31;;;;;;;25.98;13.75;;;;;;;28.31;44.13;100103.34;4975250;28;20072;-65
2022/06/27 06:18:01;;;;;;;33.17;14.30;;;;;;;28.36;44.12;100104.19;4967099;28;20640;-66
2022/06/27 06:20:28;;;;;;;34.90;15.52;;;;;;;28.37;44.06;100094.56;4982309;28;20051;-65
2022/06/27 06:22:56;;;;;;;31.73;14.60;;;;;;;28.47;43.75;100093.81;4983678;28;20084;-65
2022/06/27 06:25:23;;;;;;;40.22;15.20;;;;;;;28.53;43.95;100097.91;4966134;28;20640;-66
2022/06/27 06:27:49;;;;;;;;;;;;;;;28.66;43.96;100087.13;4982606;28;20562;-66
2022/06/27 06:30:15;;;;;;;39.20;15.43;;;;;;;28.78;43.64;100097.22;4986392;28;19969;-65
2022/06/27 06:32:45;;;;;;;40.45;14.88;;;;;;;28.87;43.26;100099.72;4983906;28;20050;-69
2022/06/27 06:35:13;;;;;;;38.95;15.13;;;;;;;28.98;42.78;100094.19;4996918;28;20752;-66
2022/06/27 06:37:40;;;;;;;47.92;14.95;;;;;;;29.20;42.44;100094.25;4991371;28;20077;-67
2022/06/27 06:40:12;;;;;;;48.72;15.57;;;;;;;29.34;41.83;100105.56;4951573;28;20039;-67
2022/06/27 06:42:40;;;;;;;69.63;17.30;;;;;;;29.39;41.86;100099.56;4972460;28;20073;-65
2022/06/27 06:45:30;;;;;;;54.03;15.00;;;;;;;29.50;41.94;100093.19;4958342;28;20050;-65
2022/06/27 06:48:05;;;;;;;89.28;17.52;;;;;;;29.64;41.63;100100.84;4997735;28;20066;-66
2022/06/27 06:50:32;;;;;;;;;;;;;;;29.68;41.81;100102.47;4976533;28;20038;-66
2022/06/27 06:52:58;;;;;;;74.25;16.55;;;;;;;29.80;41.32;100101.28;4986082;28;19937;-67
2022/06/27 06:55:27;;;;;;;43.60;15.13;;;;;;;29.81;41.25;100105.72;4980778;28;20046;-68
2022/06/27 06:57:56;;;;;;;44.72;15.27;;;;;;;29.92;40.70;100105.75;4979200;28;20042;-67
2022/06/27 07:00:23;;;;;;;40.88;14.07;;;;;;;29.96;40.17;100086.00;4980633;28;20034;-66
2022/06/27 07:02:49;;;;;;;31.55;13.50;;;;;;;30.02;40.01;100108.97;4981700;28;20046;-66
2022/06/27 07:05:16;;;;;;;29.80;13.73;;;;;;;30.03;39.72;100096.50;4649482;28;10000421;-68
2022/06/27 07:07:43;;;;;;;33.25;14.15;;;;;;;30.10;39.86;100091.69;4976849;28;20046;-64
2022/06/27 07:10:10;;;;;;;32.65;13.88;;;;;;;30.35;39.61;100092.88;4977896;28;20450;-67
2022/06/27 07:12:39;;;;;;;33.60;15.35;;;;;;;30.61;39.39;100097.31;4979906;28;20475;-67
2022/06/27 07:15:09;;;;;;;41.45;15.05;;;;;;;30.76;39.38;100098.09;4979464;28;20100;-69
2022/06/27 07:17:40;;;;;;;43.80;14.77;;;;;;;30.83;39.12;100100.09;4976509;28;20046;-67
2022/06/27 07:20:07;;;;;;;46.40;15.30;;;;;;;31.02;38.08;100095.19;4981020;28;20106;-68
2022/06/27 07:22:34;;;;;;;38.75;15.77;;;;;;;30.98;37.89;100098.03;4972261;28;20112;-65
2022/06/27 07:25:00;;;;;;;59.05;15.77;;;;;;;30.66;38.80;100099.72;4978678;28;20069;-66
2022/06/27 07:27:26;;;;;;;54.20;16.50;;;;;;;30.60;39.08;100092.88;4960027;28;20141;-65
2022/06/27 07:29:54;;;;;;;40.83;16.30;;;;;;;30.88;38.31;100096.84;4972366;28;20061;-69
2022/06/27 07:32:22;;;;;;;51.80;15.95;;;;;;;31.24;37.47;100093.94;4965049;28;20301;-65
2022/06/27 07:34:48;;;;;;;54.92;16.10;;;;;;;31.38;36.99;100093.06;4935627;28;20042;-68
2022/06/27 07:37:14;;;;;;;37.67;14.68;;;;;;;31.57;36.27;100092.97;4982188;28;20169;-67
2022/06/27 07:39:40;;;;;;;57.60;17.00;;;;;;;31.39;36.86;100091.03;4984100;28;20046;-68
2022/06/27 07:42:07;;;;;;;66.20;16.25;;;;;;;31.38;36.84;100083.78;4971734;28;20042;-66
2022/06/27 07:44:34;;;;;;;36.95;16.17;;;;;;;31.50;36.08;100074.03;4982889;28;20046;-66
2022/06/27 07:47:03;;;;;;;136.80;22.05;;;;;;;31.51;36.19;100084.91;4983255;28;20137;-66
2022/06/27 07:49:30;;;;;;;57.10;17.05;;;;;;;31.47;36.95;100097.47;4983670;28;20465;-66
2022/06/27 07:51:56;;;;;;;32.33;15.95;;;;;;;31.69;36.29;100087.63;4976279;28;20043;-67
2022/06/27 07:54:22;;;;;;;35.90;16.55;;;;;;;31.55;36.91;100085.72;4975517;28;20047;-67
2022/06/27 07:56:49;;;;;;;31.15;16.35;;;;;;;31.59;36.77;100085.66;4979819;28;20061;-67
2022/06/27 07:59:15;;;;;;;35.97;16.80;;;;;;;31.52;37.12;100082.91;4982049;28;20101;-68
2022/06/27 08:01:42;;;;;;;33.97;17.17;;;;;;;31.42;37.42;100087.38;4969806;28;20047;-65
2022/06/27 08:04:11;;;;;;;37.88;16.60;;;;;;;31.35;37.37;100091.06;4980515;28;20678;-66
2022/06/27 08:06:37;;;;;;;36.30;16.25;;;;;;;31.57;36.55;100093.75;4989190;28;20166;-66
2022/06/27 08:09:06;;;;;;;40.50;15.32;;;;;;;32.34;35.01;100091.22;4987411;28;20470;-68
2022/06/27 08:11:34;;;;;;;38.00;15.85;;;;;;;33.01;34.28;100075.97;4980955;28;20050;-65
2022/06/27 08:14:06;;;;;;;27.75;15.73;;;;;;;33.37;33.21;100084.81;4977817;28;20497;-66
2022/06/27 08:16:34;;;;;;;60.33;17.33;;;;;;;32.74;34.03;100063.34;4979664;28;20158;-68
2022/06/27 08:19:00;;;;;;;44.55;16.23;;;;;;;32.13;34.91;100078.03;4974590;28;20441;-68
2022/06/27 08:21:28;;;;;;;;;;;;;;;31.65;35.76;100077.56;4979689;28;20050;-67
2022/06/27 08:23:59;;;;;;;58.72;17.98;;;;;;;32.05;35.48;100078.13;4978905;28;20348;-65
2022/06/27 08:26:26;;;;;;;26.67;15.65;;;;;;;32.96;33.90;100071.59;4972685;28;20055;-67
2022/06/27 08:28:53;;;;;;;28.55;15.02;;;;;;;33.45;33.12;100065.72;4974555;28;20063;-66
2022/06/27 08:31:19;;;;;;;30.38;15.80;;;;;;;33.73;32.75;100062.88;4977042;28;20053;-67
2022/06/27 08:33:46;;;;;;;;;;;;;;;33.79;32.54;100066.81;4980098;28;20513;-67
2022/06/27 08:36:13;;;;;;;35.22;16.25;;;;;;;34.21;31.92;100069.41;4979805;28;19926;-68
2022/06/27 08:38:48;;;;;;;36.60;16.65;;;;;;;34.60;31.19;100067.13;4979794;28;20046;-67
2022/06/27 08:41:15;;;;;;;36.35;16.95;;;;;;;34.47;31.53;100066.91;4979677;28;20140;-65
2022/06/27 08:43:42;;;;;;;39.55;17.88;;;;;;;34.11;32.25;100070.41;4970957;28;20503;-65
2022/06/27 08:46:15;;;;;;;50.05;17.25;;;;;;;34.29;31.44;100068.03;4980390;28;20050;-65
2022/06/27 08:48:42;;;;;;;35.00;16.05;;;;;;;34.82;30.62;100064.66;4976184;28;20142;-65
2022/06/27 08:51:09;;;;;;;34.25;15.80;;;;;;;35.44;29.78;100054.84;4978615;28;20904;-64
2022/06/27 08:53:38;;;;;;;37.47;16.80;;;;;;;35.83;29.31;100061.66;4978866;28;20120;-66
2022/06/27 08:56:10;;;;;;;50.38;17.15;;;;;;;36.27;28.54;100054.88;4630199;28;10000081;-64
2022/06/27 08:58:37;;;;;;;26.20;15.55;;;;;;;36.22;28.63;100056.25;4971036;28;20039;-64
2022/06/27 09:01:05;;;;;;;25.08;15.00;;;;;;;36.44;28.14;100058.50;4971836;28;20228;-65
2022/06/27 09:03:32;;;;;;;55.42;15.90;;;;;;;36.76;27.73;100062.53;4973471;28;20104;-63
2022/06/27 09:05:59;;;;;;;48.88;16.58;;;;;;;36.83;26.84;100055.81;4969847;28;20058;-65
2022/06/27 09:08:28;;;;;;;50.42;15.98;;;;;;;36.36;27.27;100045.72;4962017;28;20046;-66
2022/06/27 09:10:56;;;;;;;39.40;16.05;;;;;;;36.19;28.11;100049.41;4975679;28;20058;-65
2022/06/27 09:13:26;;;;;;;39.47;15.85;;;;;;;36.46;27.71;100047.47;4972177;28;20073;-64
2022/06/27 09:15:55;;;;;;;34.42;16.27;;;;;;;35.82;28.59;100045.03;4631970;28;9999825;-68
2022/06/27 09:18:22;;;;;;;35.47;15.15;;;;;;;36.30;27.50;100046.25;4975682;28;20608;-68
2022/06/27 09:20:55;;;;;;;28.48;14.38;;;;;;;35.82;27.94;100039.34;4973269;28;20054;-66
2022/06/27 09:23:32;;;;;;;38.30;15.25;;;;;;;35.00;29.00;100035.09;4979950;28;20130;-65
2022/06/27 09:26:00;;;;;;;41.97;16.42;;;;;;;35.37;29.06;100038.75;4978338;28;20073;-68
2022/06/27 09:28:39;;;;;;;31.23;14.65;;;;;;;35.26;29.49;100036.16;4980868;28;20116;-66
2022/06/27 09:31:09;;;;;;;32.25;14.13;;;;;;;34.37;29.87;100046.03;4979834;28;20457;-67
2022/06/27 09:33:37;;;;;;;36.35;14.70;;;;;;;34.61;29.46;100037.50;4978712;28;20055;-68
2022/06/27 09:36:11;;;;;;;41.13;15.52;;;;;;;35.82;27.99;100040.13;4974901;28;20110;-66
2022/06/27 09:38:43;;;;;;;34.47;15.25;;;;;;;36.77;26.33;100035.66;4978246;28;20585;-66
2022/06/27 09:41:14;;;;;;;39.63;15.23;;;;;;;37.84;25.21;100032.00;4988297;28;20065;-64
2022/06/27 09:43:46;;;;;;;30.83;15.13;;;;;;;38.63;24.18;100030.53;4983707;28;20059;-67
2022/06/27 09:46:15;;;;;;;66.95;15.95;;;;;;;37.78;25.32;100031.78;4984420;28;20042;-67
2022/06/27 09:48:44;;;;;;;30.40;14.75;;;;;;;36.07;27.39;100033.06;4978332;28;20241;-67
2022/06/27 09:51:14;;;;;;;35.22;15.27;;;;;;;34.97;28.99;100033.91;4982228;28;20050;-66
2022/06/27 09:53:44;;;;;;;43.35;14.20;;;;;;;33.99;30.19;100032.13;4981317;28;20046;-68
2022/06/27 09:56:13;;;;;;;38.05;14.65;;;;;;;34.01;30.28;100038.94;4977532;28;20054;-67
2022/06/27 09:58:42;;;;;;;28.85;14.95;;;;;;;35.59;28.30;100032.59;4984732;28;20418;-66
2022/06/27 10:01:10;;;;;;;25.02;14.43;;;;;;;36.66;27.14;100029.47;4985742;28;20089;-66
2022/06/27 10:03:37;;;;;;;30.33;15.50;;;;;;;36.95;26.55;100014.38;4983718;28;20057;-66
2022/06/27 10:06:05;;;;;;;39.08;15.57;;;;;;;37.26;25.71;100020.38;4987267;28;20124;-65
2022/06/27 10:08:32;;;;;;;32.40;13.75;;;;;;;37.67;24.90;100015.03;4985687;28;20722;-65
2022/06/27 10:11:08;;;;;;;37.95;13.07;;;;;;;38.38;23.55;100018.72;4976044;28;20046;-65
2022/06/27 10:13:36;;;;;;;24.05;11.88;;;;;;;38.85;22.38;100005.59;4974171;28;20043;-64
2022/06/27 10:16:09;;;;;;;28.23;12.48;;;;;;;39.31;21.98;100024.25;4972144;28;20058;-66
2022/06/27 10:18:53;;;;;;;29.42;12.55;;;;;;;38.55;22.74;100013.63;4981689;28;20593;-66
2022/06/27 10:21:27;;;;;;;31.35;14.30;;;;;;;38.33;24.02;100007.91;4978445;28;20128;-66
2022/06/27 10:24:41;;;;;;;26.35;13.65;;;;;;;38.24;23.98;100016.38;4980718;28;20446;-66
2022/06/27 10:27:27;;;;;;;26.58;13.52;;;;;;;38.65;23.72;100008.81;4987631;28;20245;-65
2022/06/27 10:29:53;;;;;;;27.98;12.88;;;;;;;39.17;22.73;100011.34;4969434;28;20090;-67
2022/06/27 10:32:46;;;;;;;25.20;12.88;;;;;;;40.12;21.64;100005.41;4971924;28;20055;-66
2022/06/27 10:35:15;;;;;;;17.77;12.95;;;;;;;40.06;21.96;99999.56;4962796;28;20050;-65
2022/06/27 10:37:42;;;;;;;41.38;13.43;;;;;;;39.93;22.07;99996.03;4979687;28;20839;-67
2022/06/27 10:40:50;;;;;;;42.55;12.32;;;;;;;40.05;21.81;100000.81;4981241;28;20366;-65
2022/06/27 10:43:39;;;;;;;55.50;13.23;;;;;;;40.01;21.37;99999.38;4975189;28;20054;-67
2022/06/27 10:46:42;;;;;;;25.92;12.48;;;;;;;39.85;21.53;100004.13;4977874;28;20577;-65
2022/06/27 10:49:23;;;;;;;26.13;13.35;;;;;;;39.74;21.94;99993.13;4955369;28;20054;-67
2022/06/27 10:51:50;;;;;;;38.33;13.90;;;;;;;39.63;22.33;99996.41;4961805;28;20152;-68
2022/06/27 10:54:16;;;;;;;35.42;12.48;;;;;;;39.30;22.80;99991.22;4980515;28;20437;-66
2022/06/27 10:56:43;;;;;;;;;;;;;;;39.45;22.43;99985.75;4980579;28;20058;-67
2022/06/27 10:59:57;;;;;;;36.05;13.77;;;;;;;38.80;23.14;99985.41;4983529;28;20293;-67
2022/06/27 11:02:27;;;;;;;35.45;13.10;;;;;;;39.50;22.29;99987.97;4970786;28;20076;-66
2022/06/27 11:04:55;;;;;;;32.00;12.23;;;;;;;40.10;21.53;99977.28;4975620;28;20050;-66
2022/06/27 11:07:21;;;;;;;37.83;12.57;;;;;;;40.05;21.48;99986.53;4981963;28;20448;-67
2022/06/27 11:09:47;;;;;;;;;;;;;;;38.48;23.37;99982.50;4979850;28;20058;-66
2022/06/27 11:12:16;;;;;;;26.17;10.95;;;;;;;37.15;24.27;99980.84;4976926;28;20209;-66
2022/06/27 11:14:47;;;;;;;32.90;11.20;;;;;;;36.05;25.75;99985.13;4977055;28;20420;-64
2022/06/27 11:17:35;;;;;;;33.78;13.00;;;;;;;36.86;25.28;99978.84;4972168;28;20069;-66
2022/06/27 11:20:11;;;;;;;22.98;12.23;;;;;;;38.42;23.17;99976.56;4977506;28;20100;-66
2022/06/27 11:22:38;;;;;;;30.70;11.50;;;;;;;39.92;21.14;99983.00;4979047;28;20652;-66